sensor_id;sensor_type;location;lat;lon;timestamp;temperature;humidity
60495;DHT22;46342;49.046;11.920;2024-03-02T00:00:21;9.50;64.30
60495;DHT22;46342;49.046;11.920;2024-03-02T00:02:48;9.40;64.30
60495;DHT22;46342;49.046;11.920;2024-03-02T00:05:19;9.40;64.30
60495;DHT22;46342;49.046;11.920;2024-03-02T00:07:52;9.40;64.60
60495;DHT22;46342;49.046;11.920;2024-03-02T00:10:21;9.40;64.40
60495;DHT22;46342;49.046;11.920;2024-03-02T00:12:51;9.40;64.40
60495;DHT22;46342;49.046;11.920;2024-03-02T00:17:57;9.40;65.00
60495;DHT22;46342;49.046;11.920;2024-03-02T00:20:24;9.30;64.30
60495;DHT22;46342;49.046;11.920;2024-03-02T00:23:08;9.40;64.40
60495;DHT22;46342;49.046;11.920;2024-03-02T00:25:45;9.40;64.70
60495;DHT22;46342;49.046;11.920;2024-03-02T00:30:59;9.40;65.00
60495;DHT22;46342;49.046;11.920;2024-03-02T00:33:40;9.30;65.00
60495;DHT22;46342;49.046;11.920;2024-03-02T00:36:07;9.40;65.90
60495;DHT22;46342;49.046;11.920;2024-03-02T00:38:34;9.30;64.50
60495;DHT22;46342;49.046;11.920;2024-03-02T00:41:06;9.30;64.50
60495;DHT22;46342;49.046;11.920;2024-03-02T00:43:45;9.40;65.10
60495;DHT22;46342;49.046;11.920;2024-03-02T00:46:12;9.30;65.00
60495;DHT22;46342;49.046;11.920;2024-03-02T00:48:45;9.30;64.70
60495;DHT22;46342;49.046;11.920;2024-03-02T00:51:12;9.30;64.70
60495;DHT22;46342;49.046;11.920;2024-03-02T00:53:38;9.30;64.70
60495;DHT22;46342;49.046;11.920;2024-03-02T00:56:04;9.30;64.70
60495;DHT22;46342;49.046;11.920;2024-03-02T00:58:34;9.30;64.70
60495;DHT22;46342;49.046;11.920;2024-03-02T01:00:59;9.30;64.70
60495;DHT22;46342;49.046;11.920;2024-03-02T01:03:25;9.30;64.80
60495;DHT22;46342;49.046;11.920;2024-03-02T01:05:51;9.30;64.90
60495;DHT22;46342;49.046;11.920;2024-03-02T01:08:16;9.30;64.80
60495;DHT22;46342;49.046;11.920;2024-03-02T01:10:42;9.30;64.90
60495;DHT22;46342;49.046;11.920;2024-03-02T01:13:08;9.30;64.90
60495;DHT22;46342;49.046;11.920;2024-03-02T01:15:34;9.30;65.00
60495;DHT22;46342;49.046;11.920;2024-03-02T01:18:00;9.30;65.00
60495;DHT22;46342;49.046;11.920;2024-03-02T01:20:25;9.20;64.80
60495;DHT22;46342;49.046;11.920;2024-03-02T01:22:51;9.30;65.00
60495;DHT22;46342;49.046;11.920;2024-03-02T01:25:17;9.20;64.90
60495;DHT22;46342;49.046;11.920;2024-03-02T01:27:43;9.20;65.00
60495;DHT22;46342;49.046;11.920;2024-03-02T01:30:09;9.20;65.00
60495;DHT22;46342;49.046;11.920;2024-03-02T01:32:34;9.20;65.10
60495;DHT22;46342;49.046;11.920;2024-03-02T01:35:00;9.20;65.10
60495;DHT22;46342;49.046;11.920;2024-03-02T01:37:25;9.20;65.10
60495;DHT22;46342;49.046;11.920;2024-03-02T01:39:51;9.20;65.10
60495;DHT22;46342;49.046;11.920;2024-03-02T01:42:16;9.20;65.10
60495;DHT22;46342;49.046;11.920;2024-03-02T01:44:42;9.20;65.20
60495;DHT22;46342;49.046;11.920;2024-03-02T01:47:08;9.20;65.30
60495;DHT22;46342;49.046;11.920;2024-03-02T01:49:33;9.20;65.20
60495;DHT22;46342;49.046;11.920;2024-03-02T01:51:59;9.20;65.30
60495;DHT22;46342;49.046;11.920;2024-03-02T01:54:25;9.10;65.20
60495;DHT22;46342;49.046;11.920;2024-03-02T01:56:51;9.10;66.10
60495;DHT22;46342;49.046;11.920;2024-03-02T01:59:16;9.20;65.40
60495;DHT22;46342;49.046;11.920;2024-03-02T02:01:42;9.10;65.30
60495;DHT22;46342;49.046;11.920;2024-03-02T02:04:08;9.10;65.30
60495;DHT22;46342;49.046;11.920;2024-03-02T02:06:33;9.20;65.50
60495;DHT22;46342;49.046;11.920;2024-03-02T02:08:59;9.20;65.60
60495;DHT22;46342;49.046;11.920;2024-03-02T02:11:25;9.10;65.40
60495;DHT22;46342;49.046;11.920;2024-03-02T02:13:50;9.10;65.50
60495;DHT22;46342;49.046;11.920;2024-03-02T02:16:16;9.10;66.30
60495;DHT22;46342;49.046;11.920;2024-03-02T02:18:41;9.10;65.50
60495;DHT22;46342;49.046;11.920;2024-03-02T02:21:07;9.10;65.50
60495;DHT22;46342;49.046;11.920;2024-03-02T02:23:33;9.10;65.60
60495;DHT22;46342;49.046;11.920;2024-03-02T02:25:58;9.10;65.50
60495;DHT22;46342;49.046;11.920;2024-03-02T02:28:24;9.10;65.60
60495;DHT22;46342;49.046;11.920;2024-03-02T02:30:50;9.10;65.60
60495;DHT22;46342;49.046;11.920;2024-03-02T02:33:15;9.10;65.60
60495;DHT22;46342;49.046;11.920;2024-03-02T02:35:41;9.10;65.70
60495;DHT22;46342;49.046;11.920;2024-03-02T02:38:06;9.10;65.70
60495;DHT22;46342;49.046;11.920;2024-03-02T02:40:32;9.10;65.70
60495;DHT22;46342;49.046;11.920;2024-03-02T02:42:58;9.10;65.70
60495;DHT22;46342;49.046;11.920;2024-03-02T02:45:26;9.10;65.70
60495;DHT22;46342;49.046;11.920;2024-03-02T02:47:52;9.20;65.80
60495;DHT22;46342;49.046;11.920;2024-03-02T02:50:17;9.20;65.90
60495;DHT22;46342;49.046;11.920;2024-03-02T02:52:43;9.20;65.90
60495;DHT22;46342;49.046;11.920;2024-03-02T02:55:12;9.20;65.90
60495;DHT22;46342;49.046;11.920;2024-03-02T02:57:40;9.10;66.00
60495;DHT22;46342;49.046;11.920;2024-03-02T03:00:12;9.20;66.00
60495;DHT22;46342;49.046;11.920;2024-03-02T03:02:41;9.20;66.30
60495;DHT22;46342;49.046;11.920;2024-03-02T03:05:12;9.20;65.90
60495;DHT22;46342;49.046;11.920;2024-03-02T03:07:42;9.10;65.80
60495;DHT22;46342;49.046;11.920;2024-03-02T03:10:10;9.20;66.00
60495;DHT22;46342;49.046;11.920;2024-03-02T03:12:36;9.10;65.80
60495;DHT22;46342;49.046;11.920;2024-03-02T03:15:03;9.10;65.70
60495;DHT22;46342;49.046;11.920;2024-03-02T03:17:30;9.20;65.90
60495;DHT22;46342;49.046;11.920;2024-03-02T03:19:55;9.10;65.70
60495;DHT22;46342;49.046;11.920;2024-03-02T03:22:21;9.10;65.70
60495;DHT22;46342;49.046;11.920;2024-03-02T03:24:47;9.20;65.90
60495;DHT22;46342;49.046;11.920;2024-03-02T03:27:12;9.20;65.90
60495;DHT22;46342;49.046;11.920;2024-03-02T03:29:38;9.20;65.90
60495;DHT22;46342;49.046;11.920;2024-03-02T03:32:03;9.10;65.80
60495;DHT22;46342;49.046;11.920;2024-03-02T03:34:32;9.10;65.80
60495;DHT22;46342;49.046;11.920;2024-03-02T03:36:58;9.20;66.10
60495;DHT22;46342;49.046;11.920;2024-03-02T03:39:23;9.20;66.80
60495;DHT22;46342;49.046;11.920;2024-03-02T03:41:49;9.10;65.50
60495;DHT22;46342;49.046;11.920;2024-03-02T03:44:14;9.10;65.70
60495;DHT22;46342;49.046;11.920;2024-03-02T03:46:40;9.10;65.70
60495;DHT22;46342;49.046;11.920;2024-03-02T03:49:06;9.10;65.80
60495;DHT22;46342;49.046;11.920;2024-03-02T03:51:31;9.10;65.90
60495;DHT22;46342;49.046;11.920;2024-03-02T03:53:57;9.10;65.90
60495;DHT22;46342;49.046;11.920;2024-03-02T03:56:22;9.10;66.10
60495;DHT22;46342;49.046;11.920;2024-03-02T03:58:48;9.10;66.10
60495;DHT22;46342;49.046;11.920;2024-03-02T04:01:13;9.10;66.10
60495;DHT22;46342;49.046;11.920;2024-03-02T04:03:39;9.10;66.10
60495;DHT22;46342;49.046;11.920;2024-03-02T04:06:04;9.10;67.10
60495;DHT22;46342;49.046;11.920;2024-03-02T04:08:30;9.10;66.10
60495;DHT22;46342;49.046;11.920;2024-03-02T04:10:56;9.10;66.10
60495;DHT22;46342;49.046;11.920;2024-03-02T04:13:21;9.10;66.20
60495;DHT22;46342;49.046;11.920;2024-03-02T04:15:47;9.10;66.20
60495;DHT22;46342;49.046;11.920;2024-03-02T04:18:12;9.10;66.30
60495;DHT22;46342;49.046;11.920;2024-03-02T04:20:38;9.10;66.20
60495;DHT22;46342;49.046;11.920;2024-03-02T04:23:04;9.10;66.20
60495;DHT22;46342;49.046;11.920;2024-03-02T04:25:29;9.10;66.20
60495;DHT22;46342;49.046;11.920;2024-03-02T04:27:55;9.10;66.20
60495;DHT22;46342;49.046;11.920;2024-03-02T04:30:21;9.10;66.20
60495;DHT22;46342;49.046;11.920;2024-03-02T04:32:46;9.10;66.20
60495;DHT22;46342;49.046;11.920;2024-03-02T04:35:13;9.10;66.20
60495;DHT22;46342;49.046;11.920;2024-03-02T04:37:39;9.20;66.30
60495;DHT22;46342;49.046;11.920;2024-03-02T04:40:05;9.10;66.20
60495;DHT22;46342;49.046;11.920;2024-03-02T04:42:34;9.10;66.30
60495;DHT22;46342;49.046;11.920;2024-03-02T04:45:00;9.10;66.30
60495;DHT22;46342;49.046;11.920;2024-03-02T04:47:25;9.20;66.50
60495;DHT22;46342;49.046;11.920;2024-03-02T04:49:51;9.10;66.30
60495;DHT22;46342;49.046;11.920;2024-03-02T04:52:16;9.10;66.30
60495;DHT22;46342;49.046;11.920;2024-03-02T04:54:43;9.20;66.50
60495;DHT22;46342;49.046;11.920;2024-03-02T04:57:27;9.20;66.50
60495;DHT22;46342;49.046;11.920;2024-03-02T04:59:52;9.20;66.50
60495;DHT22;46342;49.046;11.920;2024-03-02T05:02:18;9.20;66.50
60495;DHT22;46342;49.046;11.920;2024-03-02T05:04:43;9.20;66.50
60495;DHT22;46342;49.046;11.920;2024-03-02T05:07:09;9.20;66.50
60495;DHT22;46342;49.046;11.920;2024-03-02T05:09:35;9.20;66.50
60495;DHT22;46342;49.046;11.920;2024-03-02T05:12:00;9.20;66.50
60495;DHT22;46342;49.046;11.920;2024-03-02T05:14:45;9.20;66.50
60495;DHT22;46342;49.046;11.920;2024-03-02T05:17:11;9.20;66.60
60495;DHT22;46342;49.046;11.920;2024-03-02T05:19:37;9.20;66.50
60495;DHT22;46342;49.046;11.920;2024-03-02T05:22:03;9.20;66.50
60495;DHT22;46342;49.046;11.920;2024-03-02T05:24:29;9.20;66.50
60495;DHT22;46342;49.046;11.920;2024-03-02T05:26:55;9.20;66.50
60495;DHT22;46342;49.046;11.920;2024-03-02T05:29:20;9.20;66.60
60495;DHT22;46342;49.046;11.920;2024-03-02T05:31:46;9.20;66.60
60495;DHT22;46342;49.046;11.920;2024-03-02T05:34:12;9.20;66.70
60495;DHT22;46342;49.046;11.920;2024-03-02T05:36:38;9.20;66.70
60495;DHT22;46342;49.046;11.920;2024-03-02T05:39:04;9.20;66.70
60495;DHT22;46342;49.046;11.920;2024-03-02T05:41:34;9.20;66.70
60495;DHT22;46342;49.046;11.920;2024-03-02T05:44:00;9.20;66.70
60495;DHT22;46342;49.046;11.920;2024-03-02T05:46:27;9.20;66.70
60495;DHT22;46342;49.046;11.920;2024-03-02T05:48:52;9.30;66.80
60495;DHT22;46342;49.046;11.920;2024-03-02T05:51:18;9.20;66.70
60495;DHT22;46342;49.046;11.920;2024-03-02T05:53:43;9.20;66.70
60495;DHT22;46342;49.046;11.920;2024-03-02T05:56:09;9.30;66.70
60495;DHT22;46342;49.046;11.920;2024-03-02T05:58:35;9.20;66.60
60495;DHT22;46342;49.046;11.920;2024-03-02T06:01:03;9.20;66.60
60495;DHT22;46342;49.046;11.920;2024-03-02T06:03:30;9.30;66.80
60495;DHT22;46342;49.046;11.920;2024-03-02T06:05:55;9.30;66.80
60495;DHT22;46342;49.046;11.920;2024-03-02T06:08:21;9.30;66.70
60495;DHT22;46342;49.046;11.920;2024-03-02T06:10:47;9.30;66.80
60495;DHT22;46342;49.046;11.920;2024-03-02T06:13:12;9.30;66.80
60495;DHT22;46342;49.046;11.920;2024-03-02T06:15:38;9.30;66.80
60495;DHT22;46342;49.046;11.920;2024-03-02T06:18:04;9.40;66.90
60495;DHT22;46342;49.046;11.920;2024-03-02T06:20:29;9.30;66.90
60495;DHT22;46342;49.046;11.920;2024-03-02T06:22:57;9.30;67.00
60495;DHT22;46342;49.046;11.920;2024-03-02T06:25:23;9.30;67.00
60495;DHT22;46342;49.046;11.920;2024-03-02T06:27:48;9.30;67.00
60495;DHT22;46342;49.046;11.920;2024-03-02T06:30:14;9.40;67.10
60495;DHT22;46342;49.046;11.920;2024-03-02T06:32:40;9.30;67.00
60495;DHT22;46342;49.046;11.920;2024-03-02T06:35:06;9.30;67.00
60495;DHT22;46342;49.046;11.920;2024-03-02T06:37:34;9.30;67.10
60495;DHT22;46342;49.046;11.920;2024-03-02T06:39:59;9.40;67.10
60495;DHT22;46342;49.046;11.920;2024-03-02T06:42:25;9.40;67.30
60495;DHT22;46342;49.046;11.920;2024-03-02T06:44:50;9.40;67.30
60495;DHT22;46342;49.046;11.920;2024-03-02T06:47:16;9.40;67.30
60495;DHT22;46342;49.046;11.920;2024-03-02T06:49:42;9.40;67.30
60495;DHT22;46342;49.046;11.920;2024-03-02T06:52:07;9.40;67.30
60495;DHT22;46342;49.046;11.920;2024-03-02T06:54:33;9.40;68.30
60495;DHT22;46342;49.046;11.920;2024-03-02T06:57:00;9.40;67.40
60495;DHT22;46342;49.046;11.920;2024-03-02T06:59:25;9.40;67.50
60495;DHT22;46342;49.046;11.920;2024-03-02T07:01:51;9.50;67.60
60495;DHT22;46342;49.046;11.920;2024-03-02T07:04:16;9.40;67.60
60495;DHT22;46342;49.046;11.920;2024-03-02T07:06:42;9.50;67.60
60495;DHT22;46342;49.046;11.920;2024-03-02T07:09:07;9.50;67.60
60495;DHT22;46342;49.046;11.920;2024-03-02T07:11:36;9.50;67.50
60495;DHT22;46342;49.046;11.920;2024-03-02T07:14:01;9.50;67.60
60495;DHT22;46342;49.046;11.920;2024-03-02T07:16:27;9.50;67.60
60495;DHT22;46342;49.046;11.920;2024-03-02T07:18:58;9.50;67.70
60495;DHT22;46342;49.046;11.920;2024-03-02T07:21:24;9.50;67.70
60495;DHT22;46342;49.046;11.920;2024-03-02T07:23:50;9.50;68.70
60495;DHT22;46342;49.046;11.920;2024-03-02T07:26:16;9.50;67.80
60495;DHT22;46342;49.046;11.920;2024-03-02T07:28:45;9.50;67.90
60495;DHT22;46342;49.046;11.920;2024-03-02T07:31:11;9.60;68.00
60495;DHT22;46342;49.046;11.920;2024-03-02T07:33:36;9.60;68.00
60495;DHT22;46342;49.046;11.920;2024-03-02T07:36:02;9.60;68.00
60495;DHT22;46342;49.046;11.920;2024-03-02T07:38:31;9.60;68.10
60495;DHT22;46342;49.046;11.920;2024-03-02T07:40:59;9.70;68.50
60495;DHT22;46342;49.046;11.920;2024-03-02T07:43:25;9.70;68.00
60495;DHT22;46342;49.046;11.920;2024-03-02T07:45:51;9.70;68.00
60495;DHT22;46342;49.046;11.920;2024-03-02T07:48:17;9.70;67.90
60495;DHT22;46342;49.046;11.920;2024-03-02T07:50:42;9.70;67.80
60495;DHT22;46342;49.046;11.920;2024-03-02T07:53:08;9.70;67.60
60495;DHT22;46342;49.046;11.920;2024-03-02T07:55:34;9.70;67.60
60495;DHT22;46342;49.046;11.920;2024-03-02T07:58:03;9.70;67.60
60495;DHT22;46342;49.046;11.920;2024-03-02T08:00:28;9.70;68.10
60495;DHT22;46342;49.046;11.920;2024-03-02T08:02:55;9.70;67.80
60495;DHT22;46342;49.046;11.920;2024-03-02T08:05:21;9.70;68.00
60495;DHT22;46342;49.046;11.920;2024-03-02T08:07:47;9.70;67.90
60495;DHT22;46342;49.046;11.920;2024-03-02T08:10:13;9.70;68.00
60495;DHT22;46342;49.046;11.920;2024-03-02T08:12:39;9.70;68.10
60495;DHT22;46342;49.046;11.920;2024-03-02T08:15:05;9.70;68.30
60495;DHT22;46342;49.046;11.920;2024-03-02T08:17:31;9.70;68.30
60495;DHT22;46342;49.046;11.920;2024-03-02T08:19:57;9.70;68.20
60495;DHT22;46342;49.046;11.920;2024-03-02T08:22:23;9.80;69.10
60495;DHT22;46342;49.046;11.920;2024-03-02T08:24:51;9.80;68.30
60495;DHT22;46342;49.046;11.920;2024-03-02T08:27:16;9.80;68.30
60495;DHT22;46342;49.046;11.920;2024-03-02T08:29:42;9.80;68.30
60495;DHT22;46342;49.046;11.920;2024-03-02T08:32:07;9.80;68.20
60495;DHT22;46342;49.046;11.920;2024-03-02T08:34:33;9.80;68.20
60495;DHT22;46342;49.046;11.920;2024-03-02T08:37:01;9.80;68.20
60495;DHT22;46342;49.046;11.920;2024-03-02T08:39:27;9.90;68.30
60495;DHT22;46342;49.046;11.920;2024-03-02T08:41:53;9.90;68.20
60495;DHT22;46342;49.046;11.920;2024-03-02T08:44:18;9.90;68.30
60495;DHT22;46342;49.046;11.920;2024-03-02T08:46:44;9.90;68.30
60495;DHT22;46342;49.046;11.920;2024-03-02T08:49:10;9.90;68.40
60495;DHT22;46342;49.046;11.920;2024-03-02T08:51:36;9.90;68.40
60495;DHT22;46342;49.046;11.920;2024-03-02T08:54:01;9.90;69.10
60495;DHT22;46342;49.046;11.920;2024-03-02T08:56:27;9.90;68.30
60495;DHT22;46342;49.046;11.920;2024-03-02T08:58:53;9.90;68.40
60495;DHT22;46342;49.046;11.920;2024-03-02T09:01:19;10.00;67.30
60495;DHT22;46342;49.046;11.920;2024-03-02T09:03:48;10.00;67.30
60495;DHT22;46342;49.046;11.920;2024-03-02T09:06:14;10.00;67.30
60495;DHT22;46342;49.046;11.920;2024-03-02T09:08:42;10.00;67.30
60495;DHT22;46342;49.046;11.920;2024-03-02T09:11:10;10.00;67.30
60495;DHT22;46342;49.046;11.920;2024-03-02T09:13:36;10.00;68.20
60495;DHT22;46342;49.046;11.920;2024-03-02T09:16:03;10.10;67.30
60495;DHT22;46342;49.046;11.920;2024-03-02T09:18:29;10.10;67.30
60495;DHT22;46342;49.046;11.920;2024-03-02T09:20:54;10.10;67.10
60495;DHT22;46342;49.046;11.920;2024-03-02T09:23:20;10.10;67.10
60495;DHT22;46342;49.046;11.920;2024-03-02T09:25:46;10.10;67.10
60495;DHT22;46342;49.046;11.920;2024-03-02T09:28:12;10.10;67.10
60495;DHT22;46342;49.046;11.920;2024-03-02T09:30:37;10.20;67.20
60495;DHT22;46342;49.046;11.920;2024-03-02T09:33:03;10.20;67.20
60495;DHT22;46342;49.046;11.920;2024-03-02T09:35:29;10.20;67.20
60495;DHT22;46342;49.046;11.920;2024-03-02T09:37:55;10.20;67.20
60495;DHT22;46342;49.046;11.920;2024-03-02T09:40:22;10.30;67.50
60495;DHT22;46342;49.046;11.920;2024-03-02T09:42:48;10.30;67.60
60495;DHT22;46342;49.046;11.920;2024-03-02T09:45:23;10.30;67.50
60495;DHT22;46342;49.046;11.920;2024-03-02T09:47:50;10.30;67.70
60495;DHT22;46342;49.046;11.920;2024-03-02T09:50:16;10.40;67.60
60495;DHT22;46342;49.046;11.920;2024-03-02T09:52:42;10.50;67.80
60495;DHT22;46342;49.046;11.920;2024-03-02T09:55:09;10.40;67.70
60495;DHT22;46342;49.046;11.920;2024-03-02T09:57:34;10.40;67.80
60495;DHT22;46342;49.046;11.920;2024-03-02T10:00:00;10.50;68.10
60495;DHT22;46342;49.046;11.920;2024-03-02T10:02:26;10.50;68.20
60495;DHT22;46342;49.046;11.920;2024-03-02T10:04:51;10.60;68.30
60495;DHT22;46342;49.046;11.920;2024-03-02T10:07:18;10.60;68.30
60495;DHT22;46342;49.046;11.920;2024-03-02T10:09:45;10.70;68.60
60495;DHT22;46342;49.046;11.920;2024-03-02T10:12:14;10.70;68.50
60495;DHT22;46342;49.046;11.920;2024-03-02T10:14:40;10.80;68.30
60495;DHT22;46342;49.046;11.920;2024-03-02T10:17:10;10.80;68.00
60495;DHT22;46342;49.046;11.920;2024-03-02T10:19:36;10.90;68.10
60495;DHT22;46342;49.046;11.920;2024-03-02T10:22:03;10.90;67.80
60495;DHT22;46342;49.046;11.920;2024-03-02T10:24:42;10.90;67.60
60495;DHT22;46342;49.046;11.920;2024-03-02T10:27:31;11.00;67.80
60495;DHT22;46342;49.046;11.920;2024-03-02T10:29:59;11.00;67.90
60495;DHT22;46342;49.046;11.920;2024-03-02T10:32:28;11.00;67.30
60495;DHT22;46342;49.046;11.920;2024-03-02T10:34:54;11.00;67.50
60495;DHT22;46342;49.046;11.920;2024-03-02T10:37:21;11.00;67.70
60495;DHT22;46342;49.046;11.920;2024-03-02T10:39:47;11.00;67.60
60495;DHT22;46342;49.046;11.920;2024-03-02T10:42:14;11.10;67.60
60495;DHT22;46342;49.046;11.920;2024-03-02T10:44:40;11.10;67.80
60495;DHT22;46342;49.046;11.920;2024-03-02T10:47:06;11.10;67.60
60495;DHT22;46342;49.046;11.920;2024-03-02T10:49:33;11.10;67.50
60495;DHT22;46342;49.046;11.920;2024-03-02T10:51:59;11.20;67.60
60495;DHT22;46342;49.046;11.920;2024-03-02T10:54:25;11.20;67.60
60495;DHT22;46342;49.046;11.920;2024-03-02T10:56:53;11.20;67.60
60495;DHT22;46342;49.046;11.920;2024-03-02T11:01:55;11.30;68.00
60495;DHT22;46342;49.046;11.920;2024-03-02T11:04:21;11.30;67.70
60495;DHT22;46342;49.046;11.920;2024-03-02T11:06:51;11.40;68.50
60495;DHT22;46342;49.046;11.920;2024-03-02T11:09:22;11.30;67.60
60495;DHT22;46342;49.046;11.920;2024-03-02T11:12:00;11.40;67.90
60495;DHT22;46342;49.046;11.920;2024-03-02T11:14:30;11.40;67.90
60495;DHT22;46342;49.046;11.920;2024-03-02T11:16:56;11.40;68.80
60495;DHT22;46342;49.046;11.920;2024-03-02T11:19:23;11.40;67.80
60495;DHT22;46342;49.046;11.920;2024-03-02T11:21:50;11.50;67.80
60495;DHT22;46342;49.046;11.920;2024-03-02T11:26:49;11.60;68.10
60495;DHT22;46342;49.046;11.920;2024-03-02T11:32:05;11.70;68.10
60495;DHT22;46342;49.046;11.920;2024-03-02T11:34:33;11.70;67.70
60495;DHT22;46342;49.046;11.920;2024-03-02T11:37:02;11.70;67.70
60495;DHT22;46342;49.046;11.920;2024-03-02T11:39:28;11.70;67.50
60495;DHT22;46342;49.046;11.920;2024-03-02T11:41:55;11.70;67.60
60495;DHT22;46342;49.046;11.920;2024-03-02T11:44:21;11.80;67.70
60495;DHT22;46342;49.046;11.920;2024-03-02T11:46:53;11.80;67.70
60495;DHT22;46342;49.046;11.920;2024-03-02T11:49:51;11.90;67.70
60495;DHT22;46342;49.046;11.920;2024-03-02T11:52:20;12.00;67.60
60495;DHT22;46342;49.046;11.920;2024-03-02T11:54:47;12.00;67.40
60495;DHT22;46342;49.046;11.920;2024-03-02T11:57:18;12.00;67.30
60495;DHT22;46342;49.046;11.920;2024-03-02T11:59:45;12.10;67.20
60495;DHT22;46342;49.046;11.920;2024-03-02T12:02:15;12.00;66.90
60495;DHT22;46342;49.046;11.920;2024-03-02T12:04:42;12.10;66.90
60495;DHT22;46342;49.046;11.920;2024-03-02T12:07:09;12.10;67.70
60495;DHT22;46342;49.046;11.920;2024-03-02T12:09:34;12.10;66.60
60495;DHT22;46342;49.046;11.920;2024-03-02T12:12:08;12.10;66.50
60495;DHT22;46342;49.046;11.920;2024-03-02T12:14:36;12.20;66.60
60495;DHT22;46342;49.046;11.920;2024-03-02T12:17:02;12.20;66.50
60495;DHT22;46342;49.046;11.920;2024-03-02T12:19:29;12.20;66.50
60495;DHT22;46342;49.046;11.920;2024-03-02T12:21:56;12.20;66.60
60495;DHT22;46342;49.046;11.920;2024-03-02T12:24:22;12.30;66.80
60495;DHT22;46342;49.046;11.920;2024-03-02T12:26:50;12.30;66.70
60495;DHT22;46342;49.046;11.920;2024-03-02T12:29:16;12.30;66.30
60495;DHT22;46342;49.046;11.920;2024-03-02T12:31:43;12.30;66.00
60495;DHT22;46342;49.046;11.920;2024-03-02T12:34:16;12.30;65.70
60495;DHT22;46342;49.046;11.920;2024-03-02T12:36:42;12.40;65.60
60495;DHT22;46342;49.046;11.920;2024-03-02T12:39:08;12.40;65.80
60495;DHT22;46342;49.046;11.920;2024-03-02T12:41:38;12.40;66.00
60495;DHT22;46342;49.046;11.920;2024-03-02T12:44:06;12.40;65.70
60495;DHT22;46342;49.046;11.920;2024-03-02T12:46:32;12.40;65.80
60495;DHT22;46342;49.046;11.920;2024-03-02T12:48:58;12.50;66.00
60495;DHT22;46342;49.046;11.920;2024-03-02T12:51:30;12.50;66.90
60495;DHT22;46342;49.046;11.920;2024-03-02T12:53:57;12.50;66.20
60495;DHT22;46342;49.046;11.920;2024-03-02T12:56:23;12.60;66.20
60495;DHT22;46342;49.046;11.920;2024-03-02T12:58:53;12.70;66.30
60495;DHT22;46342;49.046;11.920;2024-03-02T13:01:19;12.70;66.90
60495;DHT22;46342;49.046;11.920;2024-03-02T13:03:45;12.70;66.10
60495;DHT22;46342;49.046;11.920;2024-03-02T13:06:10;12.80;66.30
60495;DHT22;46342;49.046;11.920;2024-03-02T13:08:36;12.80;66.40
60495;DHT22;46342;49.046;11.920;2024-03-02T13:11:02;12.90;66.50
60495;DHT22;46342;49.046;11.920;2024-03-02T13:13:31;12.90;66.40
60495;DHT22;46342;49.046;11.920;2024-03-02T13:15:57;13.00;66.40
60495;DHT22;46342;49.046;11.920;2024-03-02T13:18:23;13.00;66.40
60495;DHT22;46342;49.046;11.920;2024-03-02T13:20:48;13.10;66.20
60495;DHT22;46342;49.046;11.920;2024-03-02T13:23:14;13.10;66.20
60495;DHT22;46342;49.046;11.920;2024-03-02T13:25:40;13.20;66.10
60495;DHT22;46342;49.046;11.920;2024-03-02T13:28:06;13.20;66.10
60495;DHT22;46342;49.046;11.920;2024-03-02T13:30:32;13.30;66.20
60495;DHT22;46342;49.046;11.920;2024-03-02T13:32:58;13.40;66.30
60495;DHT22;46342;49.046;11.920;2024-03-02T13:35:23;13.50;66.30
60495;DHT22;46342;49.046;11.920;2024-03-02T13:37:49;13.50;66.20
60495;DHT22;46342;49.046;11.920;2024-03-02T13:40:15;13.60;66.10
60495;DHT22;46342;49.046;11.920;2024-03-02T13:42:48;13.60;66.00
60495;DHT22;46342;49.046;11.920;2024-03-02T13:45:14;13.70;65.80
60495;DHT22;46342;49.046;11.920;2024-03-02T13:47:40;13.70;65.10
60495;DHT22;46342;49.046;11.920;2024-03-02T13:50:06;13.70;64.70
60495;DHT22;46342;49.046;11.920;2024-03-02T13:52:32;13.70;64.40
60495;DHT22;46342;49.046;11.920;2024-03-02T13:54:58;13.70;64.30
60495;DHT22;46342;49.046;11.920;2024-03-02T13:57:23;13.70;64.20
60495;DHT22;46342;49.046;11.920;2024-03-02T13:59:49;13.70;64.30
60495;DHT22;46342;49.046;11.920;2024-03-02T14:02:15;13.70;64.00
60495;DHT22;46342;49.046;11.920;2024-03-02T14:04:41;13.70;63.90
60495;DHT22;46342;49.046;11.920;2024-03-02T14:07:07;13.60;63.70
60495;DHT22;46342;49.046;11.920;2024-03-02T14:09:32;13.60;63.80
60495;DHT22;46342;49.046;11.920;2024-03-02T14:11:58;13.60;63.80
60495;DHT22;46342;49.046;11.920;2024-03-02T14:14:26;13.60;64.00
60495;DHT22;46342;49.046;11.920;2024-03-02T14:16:52;13.60;64.00
60495;DHT22;46342;49.046;11.920;2024-03-02T14:19:18;13.60;63.90
60495;DHT22;46342;49.046;11.920;2024-03-02T14:21:44;13.60;63.80
60495;DHT22;46342;49.046;11.920;2024-03-02T14:24:10;13.60;63.80
60495;DHT22;46342;49.046;11.920;2024-03-02T14:26:36;13.60;64.00
60495;DHT22;46342;49.046;11.920;2024-03-02T14:29:03;13.60;64.00
60495;DHT22;46342;49.046;11.920;2024-03-02T14:31:29;13.70;64.30
60495;DHT22;46342;49.046;11.920;2024-03-02T14:33:55;13.70;64.50
60495;DHT22;46342;49.046;11.920;2024-03-02T14:36:20;13.70;64.50
60495;DHT22;46342;49.046;11.920;2024-03-02T14:38:46;13.80;64.40
60495;DHT22;46342;49.046;11.920;2024-03-02T14:41:12;13.80;63.90
60495;DHT22;46342;49.046;11.920;2024-03-02T14:43:38;13.90;64.40
60495;DHT22;46342;49.046;11.920;2024-03-02T14:46:04;13.90;63.40
60495;DHT22;46342;49.046;11.920;2024-03-02T14:48:30;13.90;63.30
60495;DHT22;46342;49.046;11.920;2024-03-02T14:50:57;13.90;63.20
60495;DHT22;46342;49.046;11.920;2024-03-02T14:53:22;13.90;63.20
60495;DHT22;46342;49.046;11.920;2024-03-02T14:55:48;13.90;63.40
60495;DHT22;46342;49.046;11.920;2024-03-02T14:58:15;14.00;63.40
60495;DHT22;46342;49.046;11.920;2024-03-02T15:00:41;14.00;63.20
60495;DHT22;46342;49.046;11.920;2024-03-02T15:03:07;14.00;63.20
60495;DHT22;46342;49.046;11.920;2024-03-02T15:05:34;14.00;63.20
60495;DHT22;46342;49.046;11.920;2024-03-02T15:08:00;14.00;63.20
60495;DHT22;46342;49.046;11.920;2024-03-02T15:10:28;14.00;63.40
60495;DHT22;46342;49.046;11.920;2024-03-02T15:12:53;14.10;63.50
60495;DHT22;46342;49.046;11.920;2024-03-02T15:15:19;14.10;63.10
60495;DHT22;46342;49.046;11.920;2024-03-02T15:17:44;14.10;63.10
60495;DHT22;46342;49.046;11.920;2024-03-02T15:20:10;14.10;63.10
60495;DHT22;46342;49.046;11.920;2024-03-02T15:22:36;14.20;63.00
60495;DHT22;46342;49.046;11.920;2024-03-02T15:25:02;14.20;62.90
60495;DHT22;46342;49.046;11.920;2024-03-02T15:27:28;14.20;62.70
60495;DHT22;46342;49.046;11.920;2024-03-02T15:29:53;14.30;62.70
60495;DHT22;46342;49.046;11.920;2024-03-02T15:32:20;14.30;62.60
60495;DHT22;46342;49.046;11.920;2024-03-02T15:34:46;14.30;62.60